McCurtain, Oklahoma
Current Conditions -  °F | °C
As of 2:15 AM on Friday 24 Oct 2014 (Local Time) from KGZL Reporting Station
Overcast Overcast  
Wind Chill: 55°   Ceiling: 5000
Heat Index: 55°   Visibility: 10mi
Dew Point: 52°   Wind: 5mph
Humidity: 88%   Direction: 110°ESE
Pressure: 30.13"   Gusts: NA
Location:  35.15°N, 94.97°W
Report Text: KGZL 240715Z AUTO 11004KT 10SM SCT043 OVC050 13/11 A3013 RMK AO2
Loading
Personal Weather Stations






























Interactive Weather Map New forecast layout! Learn more

10-Day Weather Forecast

Advertisements
Track Severe Weather on mobile